Time;durP1;ratioP1;P1;durP2;ratioP2;P2;SDS_P1;SDS_P2;PMS_P1;PMS_P2;Temp;Humidity;BMP_temperature;BMP_pressure;BME280_temperature;BME280_humidity;BME280_pressure;Samples;Min_cycle;Max_cycle;Signal;HPM_P1;HPM_P2
2021/09/01 00:00:42;;;;;;;3.72;0.95;;;;;;;19.94;58.51;102191.75;5014293;28;20079;-64
2021/09/01 00:03:08;;;;;;;3.63;0.90;;;;;;;19.91;58.84;102197.53;5014344;28;20026;-64
2021/09/01 00:05:33;;;;;;;4.30;1.48;;;;;;;19.87;58.06;102196.09;5033338;28;20037;-65
2021/09/01 00:07:58;;;;;;;2.75;1.13;;;;;;;19.82;58.95;102193.84;5034045;28;20061;-64
2021/09/01 00:10:24;;;;;;;2.25;0.88;;;;;;;19.82;58.34;102188.38;5033700;28;20029;-64
2021/09/01 00:12:49;;;;;;;2.53;1.00;;;;;;;19.85;58.26;102208.19;5035369;28;20029;-65
2021/09/01 00:15:15;;;;;;;4.07;1.10;;;;;;;19.88;58.08;102200.56;5033902;28;20026;-65
2021/09/01 00:17:40;;;;;;;4.03;0.90;;;;;;;19.86;58.30;102205.31;5033786;28;20028;-65
2021/09/01 00:20:08;;;;;;;2.42;0.98;;;;;;;19.84;58.20;102210.06;5033996;28;20052;-64
2021/09/01 00:22:34;;;;;;;1.70;0.85;;;;;;;19.86;58.79;102194.38;5033962;28;20029;-64
2021/09/01 00:25:00;;;;;;;3.60;1.17;;;;;;;19.85;58.49;102200.00;5033216;28;20025;-65
2021/09/01 00:27:51;;;;;;;2.83;1.00;;;;;;;19.78;58.46;102202.44;5039972;28;20028;-63
2021/09/01 00:30:16;;;;;;;3.15;1.48;;;;;;;19.80;58.31;102198.53;5033571;28;20029;-65
2021/09/01 00:32:41;;;;;;;1.73;0.80;;;;;;;19.79;58.21;102198.69;5033256;28;20032;-65
2021/09/01 00:35:07;;;;;;;1.55;1.00;;;;;;;19.76;58.00;102204.47;5033179;28;20018;-64
2021/09/01 00:37:33;;;;;;;1.80;0.98;;;;;;;19.74;58.90;102201.88;5033569;28;20029;-64
2021/09/01 00:39:58;;;;;;;1.88;0.90;;;;;;;19.79;58.13;102205.00;5033011;28;20059;-64
2021/09/01 00:42:23;;;;;;;3.22;1.25;;;;;;;19.76;59.09;102199.88;5013851;28;20037;-64
2021/09/01 00:44:49;;;;;;;2.13;0.90;;;;;;;19.74;58.28;102201.88;5013534;28;20029;-65
2021/09/01 00:47:17;;;;;;;1.25;0.98;;;;;;;19.72;58.86;102211.22;5013420;28;20030;-64
2021/09/01 00:49:42;;;;;;;1.05;0.80;;;;;;;19.74;58.03;102207.34;5013850;28;20505;-64
2021/09/01 00:52:08;;;;;;;2.00;0.80;;;;;;;19.73;59.02;102215.69;5016696;28;20028;-65
2021/09/01 00:54:33;;;;;;;2.67;1.25;;;;;;;19.74;59.21;102212.78;5013801;28;20555;-65
2021/09/01 00:57:01;;;;;;;1.98;1.20;;;;;;;19.71;58.44;102209.50;5014123;28;20383;-64
2021/09/01 00:59:29;;;;;;;4.60;1.42;;;;;;;19.72;59.31;102208.50;5013242;28;20048;-64
2021/09/01 01:01:56;;;;;;;1.60;0.95;;;;;;;19.73;58.22;102221.13;4995801;28;20030;-64
2021/09/01 01:04:23;;;;;;;2.03;1.10;;;;;;;19.68;58.05;102215.25;5013364;28;20029;-65
2021/09/01 01:06:49;;;;;;;3.35;0.80;;;;;;;19.71;58.37;102217.69;5013345;28;20037;-64
2021/09/01 01:09:14;;;;;;;2.35;1.23;;;;;;;19.64;58.08;102228.31;5015106;28;20038;-64
2021/09/01 01:12:03;;;;;;;3.03;1.55;;;;;;;19.66;58.36;102220.00;5013401;28;20026;-64
2021/09/01 01:14:29;;;;;;;2.08;0.80;;;;;;;19.66;58.64;102222.75;5013095;28;20022;-64
2021/09/01 01:16:54;;;;;;;5.18;1.30;;;;;;;19.66;58.75;102220.00;5013302;28;20076;-64
2021/09/01 01:19:20;;;;;;;2.53;1.10;;;;;;;19.66;58.54;102209.97;5013049;28;20067;-65
2021/09/01 01:21:46;;;;;;;6.45;1.58;;;;;;;19.64;58.33;102213.81;5012605;28;20398;-64
2021/09/01 01:24:11;;;;;;;2.17;1.20;;;;;;;19.60;58.13;102220.56;4996549;28;20080;-64
2021/09/01 01:26:37;;;;;;;3.55;1.20;;;;;;;19.63;59.38;102215.69;5014358;28;20037;-65
2021/09/01 01:29:05;;;;;;;2.47;1.05;;;;;;;19.65;58.71;102201.91;5013081;28;20037;-64
2021/09/01 01:31:31;;;;;;;2.78;1.23;;;;;;;19.66;57.92;102198.19;5012992;28;20105;-64
2021/09/01 01:33:57;;;;;;;2.17;1.10;;;;;;;19.60;58.72;102187.84;5013087;28;20209;-64
2021/09/01 01:36:25;;;;;;;3.83;1.00;;;;;;;19.63;58.64;102204.78;5012953;28;20040;-64
2021/09/01 01:38:50;;;;;;;1.73;1.10;;;;;;;19.62;58.73;102205.78;5013047;28;20375;-64
2021/09/01 01:41:16;;;;;;;3.17;1.20;;;;;;;19.55;58.01;102198.34;5026312;28;20030;-61
2021/09/01 01:43:46;;;;;;;1.95;0.90;;;;;;;19.62;59.08;102207.66;5032879;28;20026;-64
2021/09/01 01:46:12;;;;;;;2.90;1.13;;;;;;;19.62;58.39;102196.75;5032637;28;20030;-64
2021/09/01 01:48:37;;;;;;;2.55;0.95;;;;;;;19.61;58.13;102192.28;5032718;28;20219;-64
2021/09/01 01:51:03;;;;;;;2.80;1.20;;;;;;;19.60;58.98;102187.84;5032666;28;20056;-65
2021/09/01 01:53:29;;;;;;;1.15;0.80;;;;;;;19.60;57.95;102199.63;5032804;28;20029;-64
2021/09/01 01:55:54;;;;;;;2.88;1.27;;;;;;;19.63;58.44;102199.31;5032703;28;20029;-65
2021/09/01 01:58:20;;;;;;;3.50;1.35;;;;;;;19.61;59.09;102208.66;5033109;28;20054;-64
2021/09/01 02:00:46;;;;;;;3.78;1.00;;;;;;;19.58;59.18;102206.22;5032168;28;20479;-65
2021/09/01 02:03:11;;;;;;;2.88;1.10;;;;;;;19.56;58.98;102210.97;5032062;28;20096;-65
2021/09/01 02:05:36;;;;;;;2.72;1.20;;;;;;;19.53;59.19;102199.31;5032406;28;20120;-65
2021/09/01 02:08:02;;;;;;;2.65;1.42;;;;;;;19.47;58.39;102204.47;5032572;28;20095;-64
2021/09/01 02:10:28;;;;;;;3.33;1.25;;;;;;;19.55;58.78;102195.63;5033049;28;20041;-65
2021/09/01 02:12:53;;;;;;;1.92;1.02;;;;;;;19.55;59.23;102198.34;5032489;28;20041;-65
2021/09/01 02:15:18;;;;;;;1.27;1.00;;;;;;;19.51;58.38;102209.53;5032261;28;20487;-64
2021/09/01 02:17:44;;;;;;;1.90;1.40;;;;;;;19.56;57.99;102205.53;5032311;28;20026;-65
2021/09/01 02:20:11;;;;;;;3.67;1.30;;;;;;;19.53;59.48;102204.78;5032508;28;20032;-64
2021/09/01 02:22:37;;;;;;;2.17;1.17;;;;;;;19.53;58.29;102204.78;5033955;28;20036;-63
2021/09/01 02:25:03;;;;;;;1.60;1.13;;;;;;;19.54;58.22;102202.94;5032848;28;20578;-65
2021/09/01 02:27:29;;;;;;;2.92;1.25;;;;;;;19.52;58.72;102202.19;5032378;28;20033;-64
2021/09/01 02:29:54;;;;;;;4.90;1.20;;;;;;;19.51;58.54;102195.88;5032229;28;20029;-65
2021/09/01 02:32:19;;;;;;;5.25;1.10;;;;;;;19.47;58.58;102199.88;5032206;28;20053;-65
2021/09/01 02:34:45;;;;;;;1.80;1.00;;;;;;;19.49;58.48;102197.91;5035544;28;20021;-65
2021/09/01 02:37:10;;;;;;;3.25;1.48;;;;;;;19.48;57.97;102196.19;5035419;28;20546;-64
2021/09/01 02:39:35;;;;;;;3.33;1.17;;;;;;;19.51;58.62;102195.88;5040914;28;20409;-65
2021/09/01 02:42:01;;;;;;;2.30;1.02;;;;;;;19.49;57.59;102195.19;5016885;28;20025;-65
2021/09/01 02:44:26;;;;;;;3.03;1.35;;;;;;;19.51;58.58;102193.16;5015799;28;20029;-64
2021/09/01 02:46:52;;;;;;;4.07;1.58;;;;;;;19.46;57.82;102187.25;5015878;28;20026;-65
2021/09/01 02:49:17;;;;;;;2.70;1.23;;;;;;;19.45;59.50;102191.00;5015831;28;20059;-64
2021/09/01 02:51:42;;;;;;;4.05;1.45;;;;;;;19.47;58.47;102196.28;5016025;28;20053;-65
2021/09/01 02:54:08;;;;;;;1.60;1.02;;;;;;;19.42;59.10;102144.06;5017328;28;20659;-65
2021/09/01 02:56:33;;;;;;;2.13;1.35;;;;;;;19.38;59.23;102146.22;5015576;28;20569;-64
2021/09/01 02:58:58;;;;;;;1.75;1.02;;;;;;;19.40;58.46;102141.50;5014943;28;20053;-64
2021/09/01 03:01:24;;;;;;;1.20;1.10;;;;;;;19.41;60.06;102195.03;5015795;28;20482;-65
2021/09/01 03:03:49;;;;;;;2.65;1.13;;;;;;;19.45;59.25;102185.53;5015572;28;20025;-65
2021/09/01 03:06:15;;;;;;;1.83;0.90;;;;;;;19.44;59.42;102188.41;5016167;28;20026;-64
2021/09/01 03:08:40;;;;;;;4.30;1.35;;;;;;;19.43;59.06;102193.00;5015669;28;20034;-64
2021/09/01 03:11:06;;;;;;;2.97;1.38;;;;;;;19.44;58.96;102186.53;5015265;28;20026;-65
2021/09/01 03:13:32;;;;;;;1.58;1.17;;;;;;;19.39;58.94;102175.22;5015505;28;20040;-64
2021/09/01 03:15:57;;;;;;;2.80;1.25;;;;;;;19.39;59.62;102180.69;5015211;28;20785;-64
2021/09/01 03:18:24;;;;;;;1.58;1.00;;;;;;;19.37;58.64;102182.69;5019294;28;20026;-64
2021/09/01 03:20:50;;;;;;;1.75;0.95;;;;;;;19.37;58.70;102177.25;5015553;28;20030;-64
2021/09/01 03:23:15;;;;;;;1.15;0.70;;;;;;;19.36;59.26;102172.78;5014958;28;20048;-65
2021/09/01 03:25:41;;;;;;;1.40;0.80;;;;;;;19.37;60.18;102166.34;5015107;28;20034;-64
2021/09/01 03:28:06;;;;;;;1.95;1.20;;;;;;;19.36;60.08;102170.06;5014674;28;20034;-64
2021/09/01 03:30:31;;;;;;;2.03;1.27;;;;;;;19.36;59.65;102172.78;5015132;28;20486;-64
2021/09/01 03:32:58;;;;;;;1.35;0.88;;;;;;;19.36;59.25;102169.22;5014871;28;20506;-65
2021/09/01 03:35:24;;;;;;;2.20;0.88;;;;;;;19.34;59.30;102165.78;4999570;28;20060;-64
2021/09/01 03:37:50;;;;;;;1.27;0.80;;;;;;;19.34;60.34;102154.88;5014992;28;20049;-64
2021/09/01 03:40:16;;;;;;;2.65;0.90;;;;;;;19.36;59.87;102161.88;5018972;28;20033;-64
2021/09/01 03:42:41;;;;;;;2.10;0.90;;;;;;;19.35;59.77;102152.00;5034546;28;20022;-64
2021/09/01 03:45:07;;;;;;;2.08;0.80;;;;;;;19.33;59.66;102154.00;5033557;28;20029;-65
2021/09/01 03:47:33;;;;;;;1.20;0.75;;;;;;;19.35;60.15;102156.59;5036784;28;20060;-64
2021/09/01 03:50:00;;;;;;;1.15;0.65;;;;;;;19.34;59.91;102152.13;5037217;28;20061;-65
2021/09/01 03:52:25;;;;;;;1.85;0.90;;;;;;;19.32;60.16;102152.28;5034443;28;20029;-64
2021/09/01 03:54:51;;;;;;;1.52;0.65;;;;;;;19.33;60.83;102148.56;5016423;28;20068;-64
2021/09/01 03:57:16;;;;;;;2.35;1.10;;;;;;;19.30;60.82;102143.38;5034168;28;20021;-64
2021/09/01 03:59:41;;;;;;;0.73;0.43;;;;;;;19.29;60.14;102147.09;5034131;28;20045;-64
2021/09/01 04:02:07;;;;;;;1.52;0.70;;;;;;;19.66;59.12;102152.66;5034111;28;20044;-66
2021/09/01 04:04:33;;;;;;;1.00;0.50;;;;;;;20.19;57.79;102142.94;5035192;28;20029;-65
2021/09/01 04:06:58;;;;;;;1.00;0.60;;;;;;;20.42;57.35;102126.00;5033903;28;20036;-64
2021/09/01 04:09:23;;;;;;;1.10;0.60;;;;;;;20.59;57.57;102137.09;5034309;28;20030;-64
2021/09/01 04:11:49;;;;;;;0.65;0.40;;;;;;;20.76;58.21;102140.84;5000006;28;20048;-65
2021/09/01 04:14:14;;;;;;;1.25;0.50;;;;;;;20.89;57.15;102141.31;5014140;28;20033;-64
2021/09/01 04:16:39;;;;;;;0.80;0.52;;;;;;;21.01;57.83;102142.81;5014720;28;20068;-64
2021/09/01 04:19:05;;;;;;;1.33;0.50;;;;;;;21.07;57.45;102136.69;5015482;28;20025;-64
2021/09/01 04:21:30;;;;;;;0.68;0.60;;;;;;;21.15;57.58;102136.75;5014240;28;20496;-64
2021/09/01 04:23:56;;;;;;;0.55;0.40;;;;;;;21.20;57.79;102139.88;5013923;28;20478;-65
2021/09/01 04:26:21;;;;;;;1.08;0.50;;;;;;;21.19;57.97;102140.06;5014151;28;20026;-65
2021/09/01 04:28:47;;;;;;;0.85;0.47;;;;;;;21.29;58.39;102136.22;5013827;28;20048;-64
2021/09/01 04:31:12;;;;;;;1.35;0.50;;;;;;;21.29;59.00;102130.75;5014121;28;20033;-65
2021/09/01 04:33:38;;;;;;;1.75;0.40;;;;;;;21.33;58.93;102125.81;5015544;28;20364;-64
2021/09/01 04:36:04;;;;;;;0.73;0.30;;;;;;;21.40;59.60;102126.91;5013771;28;20060;-64
2021/09/01 04:38:29;;;;;;;0.95;0.40;;;;;;;21.40;59.37;102131.50;5014040;28;20053;-64
2021/09/01 04:40:54;;;;;;;0.70;0.63;;;;;;;21.39;59.58;102118.84;5022873;28;20679;-65
2021/09/01 04:43:19;;;;;;;1.23;0.55;;;;;;;21.45;59.21;102124.53;5017424;28;20032;-64
2021/09/01 04:45:45;;;;;;;1.10;0.60;;;;;;;21.48;59.52;102123.34;5014223;28;20022;-64
2021/09/01 04:48:10;;;;;;;0.63;0.47;;;;;;;21.56;60.29;102115.19;5013697;28;20029;-64
2021/09/01 04:50:36;;;;;;;0.75;0.52;;;;;;;21.59;60.14;102125.81;5013806;28;20022;-64
2021/09/01 04:53:01;;;;;;;1.73;0.38;;;;;;;21.59;60.74;102136.75;5013287;28;20021;-64
2021/09/01 04:55:26;;;;;;;0.60;0.10;;;;;;;21.59;61.86;102137.63;5013659;28;20022;-63
2021/09/01 04:57:52;;;;;;;1.10;0.50;;;;;;;21.62;59.91;102130.97;5012437;28;20122;-64
2021/09/01 05:00:17;;;;;;;1.48;0.30;;;;;;;21.63;61.29;102125.31;5013408;28;20498;-64
2021/09/01 05:02:43;;;;;;;1.02;0.35;;;;;;;21.63;60.22;102136.25;5015239;28;20041;-64
2021/09/01 05:05:08;;;;;;;0.88;0.30;;;;;;;21.64;60.62;102126.19;5013367;28;20026;-64
2021/09/01 05:07:34;;;;;;;0.88;0.40;;;;;;;21.68;60.67;102124.00;5014431;28;20029;-62
2021/09/01 05:09:59;;;;;;;0.45;0.40;;;;;;;21.71;60.67;102124.53;5013295;28;20068;-62
2021/09/01 05:12:28;;;;;;;0.73;0.30;;;;;;;21.71;61.94;102129.13;5013550;28;20117;-62
2021/09/01 05:14:54;;;;;;;1.35;0.50;;;;;;;21.72;60.91;102126.25;5014542;28;20355;-63
2021/09/01 05:17:20;;;;;;;1.77;0.47;;;;;;;21.73;61.20;102127.94;5013200;28;20109;-63
2021/09/01 05:19:45;;;;;;;2.10;0.50;;;;;;;21.75;61.32;102125.03;5013445;28;20058;-63
2021/09/01 05:22:16;;;;;;;0.80;0.38;;;;;;;21.74;61.22;102124.19;5012988;28;20418;-63
2021/09/01 05:25:04;;;;;;;0.32;0.30;;;;;;;21.74;61.42;102129.66;5013277;28;20049;-63
2021/09/01 05:27:33;;;;;;;1.27;0.45;;;;;;;21.69;61.00;102123.84;5013893;28;20025;-63
2021/09/01 05:30:00;;;;;;;0.40;0.40;;;;;;;21.72;61.60;102126.25;5013086;28;20089;-63
2021/09/01 05:32:28;;;;;;;1.55;0.38;;;;;;;21.69;62.02;102122.97;5013362;28;20034;-63
2021/09/01 05:34:55;;;;;;;1.63;0.32;;;;;;;21.63;61.58;102117.09;5012983;28;20420;-62
2021/09/01 05:37:22;;;;;;;0.82;0.30;;;;;;;21.63;60.52;102111.63;5012984;28;20022;-63
2021/09/01 05:39:50;;;;;;;0.88;0.57;;;;;;;21.69;60.43;102112.03;5013492;28;20030;-62
2021/09/01 05:42:28;;;;;;;1.63;0.50;;;;;;;21.65;60.80;102125.16;5035121;28;20029;-63
2021/09/01 05:44:55;;;;;;;0.80;0.40;;;;;;;21.63;61.30;102122.59;5032705;28;20056;-63
2021/09/01 05:47:20;;;;;;;1.85;0.50;;;;;;;21.62;61.32;102130.97;5032898;28;20097;-62
2021/09/01 05:49:48;;;;;;;1.17;0.30;;;;;;;21.58;60.67;102129.56;5032716;28;20109;-62
2021/09/01 05:52:14;;;;;;;2.40;0.60;;;;;;;21.61;61.25;102129.25;5032446;28;20067;-62
2021/09/01 05:54:42;;;;;;;1.15;0.40;;;;;;;21.65;60.77;102125.16;5015131;28;20021;-62
2021/09/01 05:57:11;;;;;;;1.27;0.50;;;;;;;21.65;60.69;102125.16;5032387;28;20025;-62
2021/09/01 05:59:45;;;;;;;1.95;0.60;;;;;;;21.65;60.83;102127.03;5033744;28;20057;-62
2021/09/01 06:02:19;;;;;;;;;;;;;;;21.62;60.82;102120.00;5031009;28;20025;-62
2021/09/01 06:04:46;;;;;;;3.80;0.57;;;;;;;21.64;61.46;102123.44;5012760;28;19920;-63
2021/09/01 06:07:18;;;;;;;2.05;0.65;;;;;;;21.69;61.07;102129.31;5012934;28;20113;-62
2021/09/01 06:09:46;;;;;;;1.33;0.63;;;;;;;21.65;61.41;102127.88;5019095;28;20360;-62
2021/09/01 06:12:19;;;;;;;1.38;0.32;;;;;;;21.66;60.81;102121.41;5016219;28;20105;-63
2021/09/01 06:14:45;;;;;;;2.47;0.60;;;;;;;21.69;60.63;102123.84;5016970;28;20101;-62
2021/09/01 06:17:11;;;;;;;1.42;0.47;;;;;;;21.65;61.09;102125.16;5016386;28;20519;-62
2021/09/01 06:19:38;;;;;;;1.13;0.30;;;;;;;21.66;61.21;102121.41;5016433;28;20018;-63
2021/09/01 06:22:04;;;;;;;1.75;0.40;;;;;;;21.67;60.97;102122.25;5016192;28;20030;-63
2021/09/01 06:24:32;;;;;;;1.20;0.35;;;;;;;21.63;61.30;102124.47;5016020;28;20034;-62
2021/09/01 06:26:57;;;;;;;1.02;0.47;;;;;;;21.64;61.94;102117.97;5036086;28;20029;-62
2021/09/01 06:29:22;;;;;;;1.45;0.55;;;;;;;21.63;61.35;102117.09;5035761;28;20044;-62
2021/09/01 06:31:48;;;;;;;4.07;0.68;;;;;;;21.63;61.59;102119.84;5032066;28;20033;-62
2021/09/01 06:34:13;;;;;;;2.47;0.63;;;;;;;21.68;61.54;102119.38;5035631;28;20029;-63
2021/09/01 06:36:38;;;;;;;1.17;0.40;;;;;;;21.69;61.24;102115.63;5035264;28;20478;-63
2021/09/01 06:39:04;;;;;;;0.98;0.40;;;;;;;21.73;61.57;102127.09;5016385;28;20348;-63
2021/09/01 06:41:29;;;;;;;1.13;0.32;;;;;;;21.72;61.06;102119.91;5024088;28;20070;-63
2021/09/01 06:43:54;;;;;;;1.98;0.40;;;;;;;21.74;61.72;102124.19;5017570;28;20431;-62
2021/09/01 06:46:20;;;;;;;3.13;0.68;;;;;;;21.67;61.58;102120.41;5003728;28;20021;-62
2021/09/01 06:48:45;;;;;;;1.05;0.40;;;;;;;21.70;61.56;102117.34;5024567;28;20025;-62
2021/09/01 06:51:10;;;;;;;1.30;0.70;;;;;;;21.75;61.36;102123.16;5015105;28;20030;-62
2021/09/01 06:53:36;;;;;;;1.35;0.50;;;;;;;21.70;62.24;102120.06;5013257;28;20417;-62
2021/09/01 06:56:15;;;;;;;4.10;0.73;;;;;;;21.73;62.66;102122.47;5021006;28;20026;-59
2021/09/01 06:58:40;;;;;;;1.40;0.40;;;;;;;21.74;61.99;102102.28;5035106;28;20046;-62
2021/09/01 07:01:05;;;;;;;0.63;0.30;;;;;;;21.74;62.29;102102.28;5034339;28;20036;-62
2021/09/01 07:03:30;;;;;;;2.90;0.70;;;;;;;21.70;63.20;102100.91;5035055;28;20025;-62
2021/09/01 07:05:56;;;;;;;1.25;0.60;;;;;;;21.72;62.74;102112.56;5035798;28;20029;-62
2021/09/01 07:08:23;;;;;;;0.70;0.35;;;;;;;21.73;62.07;102095.09;5034783;28;20415;-61
2021/09/01 07:10:50;;;;;;;1.42;0.50;;;;;;;21.74;61.73;102107.78;5037819;28;20025;-61
2021/09/01 07:13:15;;;;;;;1.77;0.65;;;;;;;21.71;62.85;102102.63;5034686;28;20037;-62
2021/09/01 07:15:41;;;;;;;3.53;0.50;;;;;;;21.70;62.58;102103.66;5035039;28;20017;-62
2021/09/01 07:18:06;;;;;;;0.32;0.20;;;;;;;21.76;61.26;102110.34;5023752;28;20021;-62
2021/09/01 07:20:32;;;;;;;3.63;0.73;;;;;;;21.79;62.45;102110.88;5034129;28;20033;-62
2021/09/01 07:22:57;;;;;;;1.10;0.47;;;;;;;21.71;62.68;102102.63;5019665;28;20418;-62
2021/09/01 07:25:22;;;;;;;2.65;0.40;;;;;;;21.74;61.27;102102.28;5016441;28;20375;-61
2021/09/01 07:27:48;;;;;;;1.80;0.68;;;;;;;21.76;61.75;102107.59;5015356;28;20033;-62
2021/09/01 07:30:14;;;;;;;1.02;0.40;;;;;;;21.74;62.97;102113.25;5014962;28;20041;-63
2021/09/01 07:32:39;;;;;;;2.08;0.68;;;;;;;21.76;61.47;102104.88;5022149;28;20021;-62
2021/09/01 07:35:17;;;;;;;1.20;0.57;;;;;;;21.75;61.87;102098.53;5034774;28;20032;-61
2021/09/01 07:37:44;;;;;;;0.50;0.32;;;;;;;21.79;62.61;102108.13;5034484;28;20020;-62
2021/09/01 07:40:11;;;;;;;1.52;0.50;;;;;;;21.80;62.94;102098.88;5016866;28;20359;-62
2021/09/01 07:42:36;;;;;;;2.28;0.70;;;;;;;21.81;61.64;102099.75;5024936;28;20505;-62
2021/09/01 07:45:03;;;;;;;1.95;0.50;;;;;;;21.77;62.32;102096.47;5033907;28;20061;-62
2021/09/01 07:47:28;;;;;;;2.88;0.55;;;;;;;21.77;62.20;102103.84;5016693;28;20048;-63
2021/09/01 07:49:53;;;;;;;0.93;0.32;;;;;;;21.73;62.10;102095.09;5034224;28;20013;-62
2021/09/01 07:52:19;;;;;;;1.75;0.60;;;;;;;21.78;62.45;102091.88;5028348;28;20025;-62
2021/09/01 07:54:44;;;;;;;0.40;0.30;;;;;;;21.80;62.26;102103.50;5034222;28;20032;-61
2021/09/01 07:57:09;;;;;;;1.23;0.40;;;;;;;21.81;61.38;102108.81;5034364;28;20443;-62
2021/09/01 07:59:34;;;;;;;0.90;0.30;;;;;;;21.79;63.07;102110.00;5034139;28;20546;-62
2021/09/01 08:02:00;;;;;;;1.88;0.63;;;;;;;21.81;61.47;102107.97;5020901;28;20038;-62
2021/09/01 08:04:25;;;;;;;0.95;0.30;;;;;;;21.83;62.57;102112.25;5022356;28;20024;-61
2021/09/01 08:06:50;;;;;;;1.95;0.70;;;;;;;21.78;63.20;102106.41;5033657;28;20040;-59
2021/09/01 08:09:16;;;;;;;2.97;0.77;;;;;;;21.79;61.90;102110.88;5035094;28;20029;-63
2021/09/01 08:11:41;;;;;;;2.92;0.85;;;;;;;21.80;61.83;102112.56;5033962;28;20359;-62
2021/09/01 08:14:06;;;;;;;1.77;0.35;;;;;;;21.78;62.68;102111.03;5033502;28;20017;-61
2021/09/01 08:16:32;;;;;;;1.33;0.40;;;;;;;21.81;61.98;102114.28;5033565;28;20021;-62
2021/09/01 08:18:57;;;;;;;1.10;0.63;;;;;;;21.79;62.30;102110.88;5033727;28;20100;-62
2021/09/01 08:21:23;;;;;;;1.13;0.40;;;;;;;21.84;61.24;102113.13;5033844;28;20500;-62
2021/09/01 08:23:48;;;;;;;0.95;0.45;;;;;;;21.86;62.54;102100.13;5033634;28;20051;-63
2021/09/01 08:26:13;;;;;;;1.60;0.60;;;;;;;21.83;62.31;102101.28;5015491;28;20028;-62
2021/09/01 08:28:39;;;;;;;3.08;0.40;;;;;;;21.83;63.10;102114.97;5033733;28;20078;-62
2021/09/01 08:31:04;;;;;;;2.35;0.40;;;;;;;21.80;62.17;102117.19;5026503;28;20028;-63
2021/09/01 08:33:31;;;;;;;0.68;0.35;;;;;;;21.83;62.46;102109.50;5025089;28;20526;-60
2021/09/01 08:35:56;;;;;;;0.85;0.30;;;;;;;21.86;61.72;102105.59;5032957;28;20039;-62
2021/09/01 08:38:22;;;;;;;0.45;0.30;;;;;;;21.85;62.17;102104.75;5033743;28;20470;-62
2021/09/01 08:40:48;;;;;;;0.52;0.32;;;;;;;21.78;61.75;102102.81;5029407;28;20041;-62
2021/09/01 08:43:17;;;;;;;1.65;0.75;;;;;;;21.86;62.60;102109.19;5033037;28;20037;-62
2021/09/01 08:45:44;;;;;;;1.52;0.22;;;;;;;21.86;61.66;102111.94;5028280;28;20034;-62
2021/09/01 08:48:13;;;;;;;2.60;0.60;;;;;;;21.85;62.99;102099.28;5030358;28;20100;-62
2021/09/01 08:50:38;;;;;;;1.13;0.55;;;;;;;21.89;61.99;102106.13;5033631;28;20060;-62
2021/09/01 08:53:04;;;;;;;1.85;0.60;;;;;;;21.83;62.42;102094.97;5032772;28;20457;-62
2021/09/01 08:55:29;;;;;;;1.38;0.35;;;;;;;21.86;61.76;102087.31;5033255;28;20474;-62
2021/09/01 08:57:54;;;;;;;0.68;0.22;;;;;;;21.90;62.72;102091.41;5032935;28;20059;-62
2021/09/01 09:00:19;;;;;;;1.52;0.43;;;;;;;21.91;63.18;102097.75;5033033;28;20036;-61
2021/09/01 09:02:53;;;;;;;3.25;0.60;;;;;;;21.85;62.08;102093.81;5033480;28;20037;-62
2021/09/01 09:05:28;;;;;;;0.50;0.35;;;;;;;21.87;62.22;102086.28;5032607;28;20410;-62
2021/09/01 09:07:54;;;;;;;1.73;0.35;;;;;;;21.82;61.93;102083.16;5025364;28;20025;-61
2021/09/01 09:10:44;;;;;;;1.58;0.50;;;;;;;21.89;62.59;102088.84;5025787;28;20029;-62
2021/09/01 09:13:13;;;;;;;1.40;0.45;;;;;;;21.89;62.81;102083.38;5015622;28;20045;-62
2021/09/01 09:15:39;;;;;;;1.30;0.50;;;;;;;21.85;61.98;102082.84;5032927;28;20025;-62
2021/09/01 09:18:25;;;;;;;1.70;0.40;;;;;;;21.82;62.77;102077.69;5033798;28;20033;-61
2021/09/01 09:21:06;;;;;;;1.75;0.45;;;;;;;21.87;61.80;102075.31;5019137;28;20594;-62
2021/09/01 09:23:31;;;;;;;0.35;0.20;;;;;;;21.87;63.72;102077.22;5034722;28;20072;-62
2021/09/01 09:25:57;;;;;;;2.40;0.40;;;;;;;21.85;62.14;102076.53;5032366;28;20045;-62
2021/09/01 09:28:22;;;;;;;1.30;0.40;;;;;;;21.89;62.55;102081.50;5015311;28;20026;-62
2021/09/01 09:30:47;;;;;;;1.63;0.50;;;;;;;21.86;63.12;102081.81;5008374;28;20022;-62
2021/09/01 09:33:21;;;;;;;0.93;0.38;;;;;;;21.87;62.17;102089.00;5032394;28;20071;-62
2021/09/01 09:35:57;;;;;;;2.03;0.38;;;;;;;21.86;62.53;102079.09;5032686;28;20025;-62
2021/09/01 09:38:45;;;;;;;1.77;0.40;;;;;;;21.83;62.78;102084.88;5032615;28;20028;-63
2021/09/01 09:41:28;;;;;;;1.58;0.50;;;;;;;21.89;62.49;102077.91;5021298;28;20398;-62
2021/09/01 09:43:56;;;;;;;1.70;0.60;;;;;;;21.89;62.62;102073.28;5014789;28;20030;-62
2021/09/01 09:46:21;;;;;;;1.15;0.20;;;;;;;21.91;62.86;102067.63;5017501;28;20030;-62
2021/09/01 09:48:48;;;;;;;1.08;0.40;;;;;;;21.89;62.67;102072.41;5029617;28;20532;-62
2021/09/01 09:51:15;;;;;;;2.17;0.52;;;;;;;21.90;62.73;102068.66;5019696;28;20117;-62
2021/09/01 09:53:43;;;;;;;0.95;0.40;;;;;;;21.95;62.71;102068.16;5020774;28;20029;-63
2021/09/01 09:56:18;;;;;;;1.23;0.40;;;;;;;21.89;62.46;102062.31;5036291;28;20049;-63
2021/09/01 09:58:52;;;;;;;;;;;;;;;21.91;62.35;102060.28;5037842;28;20051;-62
2021/09/01 10:01:18;;;;;;;3.38;0.88;;;;;;;21.91;62.74;102065.75;5036273;28;19913;-63
2021/09/01 10:03:44;;;;;;;2.78;0.70;;;;;;;21.93;62.22;102069.19;5035804;28;20033;-63
2021/09/01 10:06:14;;;;;;;1.15;0.40;;;;;;;21.92;62.40;102055.66;5035244;28;20079;-63
2021/09/01 10:08:40;;;;;;;1.55;0.30;;;;;;;21.91;62.84;102073.97;5031357;28;20036;-62
2021/09/01 10:11:09;;;;;;;1.67;0.68;;;;;;;21.90;62.48;102068.66;5019922;28;20109;-63
2021/09/01 10:13:40;;;;;;;2.25;0.47;;;;;;;21.91;63.12;102065.75;4998316;28;20052;-62
2021/09/01 10:16:24;;;;;;;0.68;0.22;;;;;;;21.91;62.80;102071.22;5018594;28;20152;-62
2021/09/01 10:18:56;;;;;;;1.10;0.32;;;;;;;21.93;62.88;102066.44;5015199;28;20022;-62
2021/09/01 10:21:25;;;;;;;1.75;0.45;;;;;;;21.92;62.36;102053.78;5015506;28;20033;-63
2021/09/01 10:23:51;;;;;;;1.60;0.57;;;;;;;21.93;62.53;102058.22;5015382;28;20022;-62
2021/09/01 10:26:28;;;;;;;3.17;0.50;;;;;;;21.90;62.56;102058.56;5015576;28;20022;-62
2021/09/01 10:28:55;;;;;;;0.80;0.30;;;;;;;21.94;62.45;102056.34;5016704;28;20049;-63
2021/09/01 10:31:23;;;;;;;1.30;0.50;;;;;;;21.95;62.52;102054.47;5016286;28;20533;-63
2021/09/01 10:33:54;;;;;;;0.93;0.55;;;;;;;21.97;62.69;102057.88;5016125;28;20041;-63
2021/09/01 10:36:22;;;;;;;1.95;0.32;;;;;;;21.96;62.19;102056.19;5016102;28;20022;-62
2021/09/01 10:38:52;;;;;;;1.48;0.35;;;;;;;21.88;62.09;102055.13;4998507;28;20514;-62
2021/09/01 10:41:48;;;;;;;1.23;0.45;;;;;;;21.87;61.82;102058.91;5029360;28;20478;-62
2021/09/01 10:44:14;;;;;;;2.15;0.30;;;;;;;21.93;62.71;102052.75;4957026;29;20039;-63
2021/09/01 10:46:51;;;;;;;4.55;0.63;;;;;;;21.92;62.48;102056.50;4955680;28;20058;-63
2021/09/01 10:49:25;;;;;;;2.05;0.50;;;;;;;21.91;62.90;102054.81;4955454;29;20619;-63
2021/09/01 10:51:52;;;;;;;;;;;;;;;21.92;63.65;102067.47;4955484;29;20038;-62
2021/09/01 10:54:30;;;;;;;2.95;0.80;;;;;;;21.91;62.98;102060.28;4955199;28;20042;-62
2021/09/01 10:56:57;;;;;;;2.58;0.55;;;;;;;21.95;61.92;102060.78;4955395;29;20106;-63
2021/09/01 10:59:27;;;;;;;1.35;0.30;;;;;;;21.94;62.75;102048.13;4955019;29;20493;-63
2021/09/01 11:02:21;;;;;;;0.95;0.43;;;;;;;21.91;62.90;102054.81;4954141;29;20059;-63
2021/09/01 11:04:58;;;;;;;1.03;0.57;;;;;;;21.95;62.56;102043.50;4950508;29;20095;-62
2021/09/01 11:07:26;;;;;;;2.38;0.50;;;;;;;21.94;63.98;102045.38;4954580;29;20074;-62
2021/09/01 11:09:56;;;;;;;1.08;0.57;;;;;;;21.92;61.60;102051.03;4938739;29;20044;-62
2021/09/01 11:12:29;;;;;;;1.45;0.47;;;;;;;21.93;62.72;102044.53;4955648;29;20038;-61
2021/09/01 11:14:55;;;;;;;3.28;0.60;;;;;;;21.89;63.03;102051.38;4954809;28;20039;-63
2021/09/01 11:17:25;;;;;;;0.88;0.40;;;;;;;21.93;63.26;102041.78;4954852;29;20460;-62
2021/09/01 11:19:53;;;;;;;1.80;0.30;;;;;;;21.88;63.03;102055.13;4969579;28;20421;-63
2021/09/01 11:22:24;;;;;;;1.00;0.40;;;;;;;21.95;62.25;102048.97;5035200;28;20067;-63
2021/09/01 11:24:52;;;;;;;2.22;0.60;;;;;;;21.99;62.58;102047.63;5034816;28;20451;-63
2021/09/01 11:27:28;;;;;;;1.38;0.50;;;;;;;21.96;63.02;102040.59;5024865;28;20038;-63